Terminal Aerodrome Forecast
Issued by NWS

Home | Current Version | Previous Version | Text Only | Print | Product List | Glossary On
Versions: 1 2 3 4 5 6 7 8 9 10 11 12 13 14 15 16 17
549
FTPA31 PHFO 031121
TAFHNY
TAF
PHNY 031121Z 0312/0412 06010KT P6SM FEW025
     FM032000 05015G23KT P6SM SCT025 BKN035
     FM040500 05010KT P6SM FEW025 SCT035=

USA.gov is the U.S. government's official web portal to all federal, state and local government web resources and services.